sensor_id;sensor_type;location;lat;lon;timestamp;temperature;humidity
31687;DHT22;18285;51.330;4.946;2023-04-03T00:02:38;23.10;32.00
31687;DHT22;18285;51.330;4.946;2023-04-03T00:26:50;23.10;31.80
31687;DHT22;18285;51.330;4.946;2023-04-03T00:51:03;23.10;31.50
31687;DHT22;18285;51.330;4.946;2023-04-03T01:15:18;23.00;31.30
31687;DHT22;18285;51.330;4.946;2023-04-03T01:39:29;23.00;31.30
31687;DHT22;18285;51.330;4.946;2023-04-03T02:03:39;23.00;31.10
31687;DHT22;18285;51.330;4.946;2023-04-03T02:27:50;23.00;31.00
31687;DHT22;18285;51.330;4.946;2023-04-03T02:52:01;23.00;30.70
31687;DHT22;18285;51.330;4.946;2023-04-03T03:16:12;23.00;30.80
31687;DHT22;18285;51.330;4.946;2023-04-03T03:40:22;23.00;30.60
31687;DHT22;18285;51.330;4.946;2023-04-03T04:04:33;22.90;30.40
31687;DHT22;18285;51.330;4.946;2023-04-03T04:28:44;22.90;30.30
31687;DHT22;18285;51.330;4.946;2023-04-03T04:52:55;22.90;30.30
31687;DHT22;18285;51.330;4.946;2023-04-03T05:17:05;22.90;30.30
31687;DHT22;18285;51.330;4.946;2023-04-03T05:41:16;22.90;30.20
31687;DHT22;18285;51.330;4.946;2023-04-03T06:05:27;22.90;30.00
31687;DHT22;18285;51.330;4.946;2023-04-03T06:29:38;22.90;29.80
31687;DHT22;18285;51.330;4.946;2023-04-03T06:53:50;22.80;30.00
31687;DHT22;18285;51.330;4.946;2023-04-03T07:18:01;22.90;30.60
31687;DHT22;18285;51.330;4.946;2023-04-03T07:42:12;23.00;29.70
31687;DHT22;18285;51.330;4.946;2023-04-03T08:06:23;22.80;30.70
31687;DHT22;18285;51.330;4.946;2023-04-03T08:30:34;22.60;27.40
31687;DHT22;18285;51.330;4.946;2023-04-03T08:54:58;22.40;29.20
31687;DHT22;18285;51.330;4.946;2023-04-03T09:43:52;22.80;29.70
31687;DHT22;18285;51.330;4.946;2023-04-03T10:08:08;22.90;29.40
31687;DHT22;18285;51.330;4.946;2023-04-03T10:32:43;23.00;29.10
31687;DHT22;18285;51.330;4.946;2023-04-03T10:57:04;23.00;28.70
31687;DHT22;18285;51.330;4.946;2023-04-03T11:21:46;23.10;26.80
31687;DHT22;18285;51.330;4.946;2023-04-03T12:10:15;22.90;26.90
31687;DHT22;18285;51.330;4.946;2023-04-03T12:59:18;23.10;26.40
31687;DHT22;18285;51.330;4.946;2023-04-03T13:23:30;23.10;26.90
31687;DHT22;18285;51.330;4.946;2023-04-03T13:47:44;23.00;27.90
31687;DHT22;18285;51.330;4.946;2023-04-03T14:12:02;23.10;27.00
31687;DHT22;18285;51.330;4.946;2023-04-03T14:36:21;23.20;26.70
31687;DHT22;18285;51.330;4.946;2023-04-03T15:00:33;23.20;27.10
31687;DHT22;18285;51.330;4.946;2023-04-03T15:24:44;22.50;22.40
31687;DHT22;18285;51.330;4.946;2023-04-03T15:48:55;22.40;22.20
31687;DHT22;18285;51.330;4.946;2023-04-03T16:13:06;22.10;22.50
31687;DHT22;18285;51.330;4.946;2023-04-03T16:37:17;21.90;23.20
31687;DHT22;18285;51.330;4.946;2023-04-03T17:01:27;21.90;22.60
31687;DHT22;18285;51.330;4.946;2023-04-03T17:25:38;21.80;22.70
31687;DHT22;18285;51.330;4.946;2023-04-03T17:49:51;21.60;22.90
31687;DHT22;18285;51.330;4.946;2023-04-03T18:14:03;21.70;25.40
31687;DHT22;18285;51.330;4.946;2023-04-03T18:38:16;22.10;26.30
31687;DHT22;18285;51.330;4.946;2023-04-03T19:02:27;22.30;27.30
31687;DHT22;18285;51.330;4.946;2023-04-03T19:26:40;22.50;26.80
31687;DHT22;18285;51.330;4.946;2023-04-03T19:50:51;22.60;27.20
31687;DHT22;18285;51.330;4.946;2023-04-03T20:15:02;22.70;27.00
31687;DHT22;18285;51.330;4.946;2023-04-03T20:39:16;22.80;27.00
31687;DHT22;18285;51.330;4.946;2023-04-03T21:03:29;22.80;26.90
31687;DHT22;18285;51.330;4.946;2023-04-03T21:27:40;22.80;27.00
31687;DHT22;18285;51.330;4.946;2023-04-03T21:51:50;22.90;26.50
31687;DHT22;18285;51.330;4.946;2023-04-03T22:16:01;22.80;26.60
31687;DHT22;18285;51.330;4.946;2023-04-03T22:40:12;22.80;26.80
31687;DHT22;18285;51.330;4.946;2023-04-03T23:04:23;22.80;26.60
31687;DHT22;18285;51.330;4.946;2023-04-03T23:28:33;22.80;26.60
31687;DHT22;18285;51.330;4.946;2023-04-03T23:52:44;22.80;26.40
